sensor_id;sensor_type;location;lat;lon;timestamp;pressure;altitude;pressure_sealevel;temperature
76476;BMP280;65308;50.078;14.854;2023-07-09T00:01:41;99578.38;;;18.93
76476;BMP280;65308;50.078;14.854;2023-07-09T00:04:09;99580.53;;;18.89
76476;BMP280;65308;50.078;14.854;2023-07-09T00:06:36;99578.59;;;18.83
76476;BMP280;65308;50.078;14.854;2023-07-09T00:09:02;99579.53;;;18.80
76476;BMP280;65308;50.078;14.854;2023-07-09T00:11:30;99582.00;;;18.78
76476;BMP280;65308;50.078;14.854;2023-07-09T00:13:56;99577.28;;;18.73
76476;BMP280;65308;50.078;14.854;2023-07-09T00:16:25;99571.84;;;18.68
76476;BMP280;65308;50.078;14.854;2023-07-09T00:18:52;99570.09;;;18.59
76476;BMP280;65308;50.078;14.854;2023-07-09T00:21:20;99578.94;;;18.54
76476;BMP280;65308;50.078;14.854;2023-07-09T00:23:47;99585.09;;;18.49
76476;BMP280;65308;50.078;14.854;2023-07-09T00:26:16;99580.63;;;18.46
76476;BMP280;65308;50.078;14.854;2023-07-09T00:28:43;99581.34;;;18.41
76476;BMP280;65308;50.078;14.854;2023-07-09T00:31:12;99581.34;;;18.35
76476;BMP280;65308;50.078;14.854;2023-07-09T00:33:42;99582.03;;;18.30
76476;BMP280;65308;50.078;14.854;2023-07-09T00:36:14;99594.34;;;18.25
76476;BMP280;65308;50.078;14.854;2023-07-09T00:38:40;99588.88;;;18.20
76476;BMP280;65308;50.078;14.854;2023-07-09T00:41:15;99587.63;;;18.15
76476;BMP280;65308;50.078;14.854;2023-07-09T00:43:44;99597.94;;;18.11
76476;BMP280;65308;50.078;14.854;2023-07-09T00:49:03;99596.38;;;17.99
76476;BMP280;65308;50.078;14.854;2023-07-09T00:51:32;99590.41;;;17.95
76476;BMP280;65308;50.078;14.854;2023-07-09T00:54:12;99596.00;;;17.86
76476;BMP280;65308;50.078;14.854;2023-07-09T00:56:43;99587.81;;;17.74
76476;BMP280;65308;50.078;14.854;2023-07-09T00:59:15;99586.28;;;17.68
76476;BMP280;65308;50.078;14.854;2023-07-09T01:01:44;99585.50;;;17.62
76476;BMP280;65308;50.078;14.854;2023-07-09T01:04:14;99589.66;;;17.57
76476;BMP280;65308;50.078;14.854;2023-07-09T01:06:45;99586.91;;;17.51
76476;BMP280;65308;50.078;14.854;2023-07-09T01:09:13;99584.41;;;17.48
76476;BMP280;65308;50.078;14.854;2023-07-09T01:11:40;99583.38;;;17.45
76476;BMP280;65308;50.078;14.854;2023-07-09T01:14:08;99581.41;;;17.46
76476;BMP280;65308;50.078;14.854;2023-07-09T01:16:45;99584.88;;;17.46
76476;BMP280;65308;50.078;14.854;2023-07-09T01:19:14;99579.47;;;17.46
76476;BMP280;65308;50.078;14.854;2023-07-09T01:21:43;99595.22;;;17.48
76476;BMP280;65308;50.078;14.854;2023-07-09T01:24:14;99586.63;;;17.49
76476;BMP280;65308;50.078;14.854;2023-07-09T01:26:41;99587.34;;;17.50
76476;BMP280;65308;50.078;14.854;2023-07-09T01:29:08;99594.19;;;17.45
76476;BMP280;65308;50.078;14.854;2023-07-09T01:31:35;99596.97;;;17.51
76476;BMP280;65308;50.078;14.854;2023-07-09T01:34:02;99596.75;;;17.54
76476;BMP280;65308;50.078;14.854;2023-07-09T01:36:29;99600.94;;;17.56
76476;BMP280;65308;50.078;14.854;2023-07-09T01:38:58;99596.00;;;17.54
76476;BMP280;65308;50.078;14.854;2023-07-09T01:41:24;99602.41;;;17.51
76476;BMP280;65308;50.078;14.854;2023-07-09T01:43:51;99600.34;;;17.46
76476;BMP280;65308;50.078;14.854;2023-07-09T01:46:18;99607.69;;;17.40
76476;BMP280;65308;50.078;14.854;2023-07-09T01:48:46;99606.41;;;17.35
76476;BMP280;65308;50.078;14.854;2023-07-09T01:51:15;99607.09;;;17.30
76476;BMP280;65308;50.078;14.854;2023-07-09T01:53:43;99613.00;;;17.28
76476;BMP280;65308;50.078;14.854;2023-07-09T01:56:12;99610.97;;;17.23
76476;BMP280;65308;50.078;14.854;2023-07-09T01:58:38;99610.00;;;17.26
76476;BMP280;65308;50.078;14.854;2023-07-09T02:01:06;99603.13;;;17.25
76476;BMP280;65308;50.078;14.854;2023-07-09T02:03:33;99605.34;;;17.27
76476;BMP280;65308;50.078;14.854;2023-07-09T02:05:59;99608.31;;;17.29
76476;BMP280;65308;50.078;14.854;2023-07-09T02:08:27;99602.16;;;17.28
76476;BMP280;65308;50.078;14.854;2023-07-09T02:10:54;99599.91;;;17.27
76476;BMP280;65308;50.078;14.854;2023-07-09T02:13:22;99600.91;;;17.24
76476;BMP280;65308;50.078;14.854;2023-07-09T02:15:49;99599.88;;;17.21
76476;BMP280;65308;50.078;14.854;2023-07-09T02:18:15;99604.06;;;17.22
76476;BMP280;65308;50.078;14.854;2023-07-09T02:20:42;99600.84;;;17.18
76476;BMP280;65308;50.078;14.854;2023-07-09T02:23:09;99605.72;;;17.14
76476;BMP280;65308;50.078;14.854;2023-07-09T02:25:35;99611.81;;;17.09
76476;BMP280;65308;50.078;14.854;2023-07-09T02:28:02;99607.06;;;17.04
76476;BMP280;65308;50.078;14.854;2023-07-09T02:30:30;99606.72;;;16.96
76476;BMP280;65308;50.078;14.854;2023-07-09T02:32:57;99608.13;;;16.92
76476;BMP280;65308;50.078;14.854;2023-07-09T02:35:24;99611.59;;;16.92
76476;BMP280;65308;50.078;14.854;2023-07-09T02:37:50;99613.53;;;16.92
76476;BMP280;65308;50.078;14.854;2023-07-09T02:40:17;99616.91;;;16.87
76476;BMP280;65308;50.078;14.854;2023-07-09T02:42:43;99620.59;;;16.84
76476;BMP280;65308;50.078;14.854;2023-07-09T02:45:10;99613.88;;;16.79
76476;BMP280;65308;50.078;14.854;2023-07-09T02:47:38;99623.41;;;16.74
76476;BMP280;65308;50.078;14.854;2023-07-09T02:50:06;99614.03;;;16.70
76476;BMP280;65308;50.078;14.854;2023-07-09T02:52:32;99621.56;;;16.66
76476;BMP280;65308;50.078;14.854;2023-07-09T02:54:59;99625.22;;;16.63
76476;BMP280;65308;50.078;14.854;2023-07-09T02:57:26;99622.72;;;16.59
76476;BMP280;65308;50.078;14.854;2023-07-09T02:59:52;99618.75;;;16.55
76476;BMP280;65308;50.078;14.854;2023-07-09T03:02:19;99626.56;;;16.52
76476;BMP280;65308;50.078;14.854;2023-07-09T03:04:47;99621.44;;;16.55
76476;BMP280;65308;50.078;14.854;2023-07-09T03:07:14;99624.59;;;16.53
76476;BMP280;65308;50.078;14.854;2023-07-09T03:09:40;99630.75;;;16.54
76476;BMP280;65308;50.078;14.854;2023-07-09T03:12:08;99629.34;;;16.58
76476;BMP280;65308;50.078;14.854;2023-07-09T03:14:35;99636.03;;;16.63
76476;BMP280;65308;50.078;14.854;2023-07-09T03:17:01;99634.50;;;16.76
76476;BMP280;65308;50.078;14.854;2023-07-09T03:19:28;99638.63;;;16.92
76476;BMP280;65308;50.078;14.854;2023-07-09T03:21:56;99642.28;;;17.10
76476;BMP280;65308;50.078;14.854;2023-07-09T03:24:23;99654.56;;;17.31
76476;BMP280;65308;50.078;14.854;2023-07-09T03:26:50;99647.19;;;17.58
76476;BMP280;65308;50.078;14.854;2023-07-09T03:29:16;99654.63;;;17.89
76476;BMP280;65308;50.078;14.854;2023-07-09T03:31:43;99664.50;;;18.23
76476;BMP280;65308;50.078;14.854;2023-07-09T03:34:10;99661.06;;;18.60
76476;BMP280;65308;50.078;14.854;2023-07-09T03:36:37;99651.88;;;19.00
76476;BMP280;65308;50.078;14.854;2023-07-09T03:39:05;99651.00;;;19.43
76476;BMP280;65308;50.078;14.854;2023-07-09T03:41:32;99655.47;;;19.91
76476;BMP280;65308;50.078;14.854;2023-07-09T03:43:59;99648.47;;;20.40
76476;BMP280;65308;50.078;14.854;2023-07-09T03:46:26;99664.31;;;20.94
76476;BMP280;65308;50.078;14.854;2023-07-09T03:48:52;99659.03;;;21.48
76476;BMP280;65308;50.078;14.854;2023-07-09T03:51:19;99670.69;;;22.03
76476;BMP280;65308;50.078;14.854;2023-07-09T03:53:45;99661.91;;;22.60
76476;BMP280;65308;50.078;14.854;2023-07-09T03:56:13;99663.78;;;23.21
76476;BMP280;65308;50.078;14.854;2023-07-09T03:58:40;99657.53;;;23.85
76476;BMP280;65308;50.078;14.854;2023-07-09T04:01:06;99661.38;;;24.42
76476;BMP280;65308;50.078;14.854;2023-07-09T04:03:33;99656.34;;;25.01
76476;BMP280;65308;50.078;14.854;2023-07-09T04:06:00;99656.81;;;25.62
76476;BMP280;65308;50.078;14.854;2023-07-09T04:08:26;99662.47;;;26.29
76476;BMP280;65308;50.078;14.854;2023-07-09T04:10:53;99665.75;;;26.94
76476;BMP280;65308;50.078;14.854;2023-07-09T04:13:23;99664.59;;;27.58
76476;BMP280;65308;50.078;14.854;2023-07-09T04:15:49;99667.34;;;28.21
76476;BMP280;65308;50.078;14.854;2023-07-09T04:18:16;99670.38;;;28.91
76476;BMP280;65308;50.078;14.854;2023-07-09T04:20:42;99669.59;;;29.57
76476;BMP280;65308;50.078;14.854;2023-07-09T04:23:09;99668.88;;;30.28
76476;BMP280;65308;50.078;14.854;2023-07-09T04:25:36;99678.44;;;31.00
76476;BMP280;65308;50.078;14.854;2023-07-09T04:28:04;99677.41;;;31.73
76476;BMP280;65308;50.078;14.854;2023-07-09T04:30:33;99682.06;;;32.40
76476;BMP280;65308;50.078;14.854;2023-07-09T04:32:59;99684.31;;;33.05
76476;BMP280;65308;50.078;14.854;2023-07-09T04:35:26;99690.72;;;33.74
76476;BMP280;65308;50.078;14.854;2023-07-09T04:37:53;99686.78;;;34.36
76476;BMP280;65308;50.078;14.854;2023-07-09T04:40:20;99690.41;;;34.99
76476;BMP280;65308;50.078;14.854;2023-07-09T04:42:47;99693.66;;;35.57
76476;BMP280;65308;50.078;14.854;2023-07-09T04:45:13;99698.16;;;36.17
76476;BMP280;65308;50.078;14.854;2023-07-09T04:47:41;99699.66;;;36.75
76476;BMP280;65308;50.078;14.854;2023-07-09T04:50:08;99700.00;;;37.42
76476;BMP280;65308;50.078;14.854;2023-07-09T04:52:36;99700.59;;;38.04
76476;BMP280;65308;50.078;14.854;2023-07-09T04:55:03;99715.03;;;38.65
76476;BMP280;65308;50.078;14.854;2023-07-09T04:57:30;99706.44;;;39.32
76476;BMP280;65308;50.078;14.854;2023-07-09T04:59:57;99703.19;;;39.99
76476;BMP280;65308;50.078;14.854;2023-07-09T05:02:23;99708.91;;;40.67
76476;BMP280;65308;50.078;14.854;2023-07-09T05:04:51;99715.69;;;41.29
76476;BMP280;65308;50.078;14.854;2023-07-09T05:07:18;99717.38;;;41.92
76476;BMP280;65308;50.078;14.854;2023-07-09T05:09:45;99710.41;;;42.53
76476;BMP280;65308;50.078;14.854;2023-07-09T05:12:12;99717.38;;;43.15
76476;BMP280;65308;50.078;14.854;2023-07-09T05:14:39;99717.88;;;43.82
76476;BMP280;65308;50.078;14.854;2023-07-09T05:17:07;99721.00;;;44.46
76476;BMP280;65308;50.078;14.854;2023-07-09T05:19:34;99715.41;;;45.07
76476;BMP280;65308;50.078;14.854;2023-07-09T05:22:02;99708.97;;;45.66
76476;BMP280;65308;50.078;14.854;2023-07-09T05:24:30;99705.66;;;46.02
76476;BMP280;65308;50.078;14.854;2023-07-09T05:26:57;99718.72;;;46.58
76476;BMP280;65308;50.078;14.854;2023-07-09T05:29:24;99718.88;;;47.15
76476;BMP280;65308;50.078;14.854;2023-07-09T05:31:52;99720.34;;;47.66
76476;BMP280;65308;50.078;14.854;2023-07-09T05:34:18;99731.66;;;47.97
76476;BMP280;65308;50.078;14.854;2023-07-09T05:36:47;99723.81;;;48.24
76476;BMP280;65308;50.078;14.854;2023-07-09T05:39:15;99725.81;;;48.50
76476;BMP280;65308;50.078;14.854;2023-07-09T05:41:42;99726.41;;;48.74
76476;BMP280;65308;50.078;14.854;2023-07-09T05:44:11;99743.91;;;49.11
76476;BMP280;65308;50.078;14.854;2023-07-09T05:46:42;99738.69;;;49.42
76476;BMP280;65308;50.078;14.854;2023-07-09T05:49:09;99736.38;;;49.65
76476;BMP280;65308;50.078;14.854;2023-07-09T05:51:38;99730.38;;;49.95
76476;BMP280;65308;50.078;14.854;2023-07-09T05:54:17;99732.22;;;50.21
76476;BMP280;65308;50.078;14.854;2023-07-09T05:56:46;99732.56;;;50.48
76476;BMP280;65308;50.078;14.854;2023-07-09T05:59:13;99737.75;;;50.86
76476;BMP280;65308;50.078;14.854;2023-07-09T06:01:39;99732.06;;;51.27
76476;BMP280;65308;50.078;14.854;2023-07-09T06:04:06;99735.03;;;51.62
76476;BMP280;65308;50.078;14.854;2023-07-09T06:06:33;99731.84;;;52.13
76476;BMP280;65308;50.078;14.854;2023-07-09T06:08:59;99739.88;;;52.69
76476;BMP280;65308;50.078;14.854;2023-07-09T06:11:28;99744.31;;;53.21
76476;BMP280;65308;50.078;14.854;2023-07-09T06:13:55;99740.75;;;53.48
76476;BMP280;65308;50.078;14.854;2023-07-09T06:16:22;99736.78;;;53.86
76476;BMP280;65308;50.078;14.854;2023-07-09T06:18:48;99735.88;;;54.16
76476;BMP280;65308;50.078;14.854;2023-07-09T06:21:15;99739.00;;;54.54
76476;BMP280;65308;50.078;14.854;2023-07-09T06:23:42;99735.56;;;54.93
76476;BMP280;65308;50.078;14.854;2023-07-09T06:26:15;99736.81;;;55.39
76476;BMP280;65308;50.078;14.854;2023-07-09T06:28:46;99736.38;;;55.89
76476;BMP280;65308;50.078;14.854;2023-07-09T06:31:13;99745.06;;;56.41
76476;BMP280;65308;50.078;14.854;2023-07-09T06:33:39;99734.94;;;56.77
76476;BMP280;65308;50.078;14.854;2023-07-09T06:36:06;99744.59;;;57.03
76476;BMP280;65308;50.078;14.854;2023-07-09T06:38:33;99750.66;;;57.28
76476;BMP280;65308;50.078;14.854;2023-07-09T06:41:00;99737.03;;;57.58
76476;BMP280;65308;50.078;14.854;2023-07-09T06:43:27;99748.66;;;57.87
76476;BMP280;65308;50.078;14.854;2023-07-09T06:45:58;99742.28;;;57.99
76476;BMP280;65308;50.078;14.854;2023-07-09T06:48:26;99733.00;;;57.68
76476;BMP280;65308;50.078;14.854;2023-07-09T06:50:54;99739.38;;;57.39
76476;BMP280;65308;50.078;14.854;2023-07-09T06:53:22;99739.91;;;57.58
76476;BMP280;65308;50.078;14.854;2023-07-09T06:55:49;99742.19;;;58.01
76476;BMP280;65308;50.078;14.854;2023-07-09T06:58:18;99750.09;;;58.45
76476;BMP280;65308;50.078;14.854;2023-07-09T07:00:49;99743.94;;;59.08
76476;BMP280;65308;50.078;14.854;2023-07-09T07:03:17;99740.41;;;59.20
76476;BMP280;65308;50.078;14.854;2023-07-09T07:05:44;99740.25;;;59.09
76476;BMP280;65308;50.078;14.854;2023-07-09T07:08:14;99738.44;;;59.16
76476;BMP280;65308;50.078;14.854;2023-07-09T07:10:41;99734.69;;;59.32
76476;BMP280;65308;50.078;14.854;2023-07-09T07:13:09;99738.28;;;59.71
76476;BMP280;65308;50.078;14.854;2023-07-09T07:15:37;99738.41;;;60.07
76476;BMP280;65308;50.078;14.854;2023-07-09T07:18:04;99735.25;;;60.23
76476;BMP280;65308;50.078;14.854;2023-07-09T07:20:33;99732.91;;;60.62
76476;BMP280;65308;50.078;14.854;2023-07-09T07:22:59;99732.47;;;60.21
76476;BMP280;65308;50.078;14.854;2023-07-09T07:25:26;99727.41;;;60.09
76476;BMP280;65308;50.078;14.854;2023-07-09T07:27:53;99736.63;;;60.24
76476;BMP280;65308;50.078;14.854;2023-07-09T07:30:19;99737.78;;;60.29
76476;BMP280;65308;50.078;14.854;2023-07-09T07:32:47;99731.78;;;60.21
76476;BMP280;65308;50.078;14.854;2023-07-09T07:35:15;99735.31;;;59.98
76476;BMP280;65308;50.078;14.854;2023-07-09T07:37:43;99734.34;;;59.76
76476;BMP280;65308;50.078;14.854;2023-07-09T07:40:11;99726.59;;;60.11
76476;BMP280;65308;50.078;14.854;2023-07-09T07:42:38;99728.22;;;60.79
76476;BMP280;65308;50.078;14.854;2023-07-09T07:45:05;99730.38;;;61.25
76476;BMP280;65308;50.078;14.854;2023-07-09T07:47:33;99725.41;;;61.68
76476;BMP280;65308;50.078;14.854;2023-07-09T07:50:00;99731.63;;;62.26
76476;BMP280;65308;50.078;14.854;2023-07-09T07:52:27;99730.13;;;62.48
76476;BMP280;65308;50.078;14.854;2023-07-09T07:54:55;99728.56;;;62.59
76476;BMP280;65308;50.078;14.854;2023-07-09T07:57:23;99730.81;;;62.48
76476;BMP280;65308;50.078;14.854;2023-07-09T07:59:51;99730.81;;;61.95
76476;BMP280;65308;50.078;14.854;2023-07-09T08:02:18;99723.53;;;61.96
76476;BMP280;65308;50.078;14.854;2023-07-09T08:04:44;99731.09;;;62.02
76476;BMP280;65308;50.078;14.854;2023-07-09T08:07:12;99728.59;;;61.75
76476;BMP280;65308;50.078;14.854;2023-07-09T08:09:39;99742.44;;;59.99
76476;BMP280;65308;50.078;14.854;2023-07-09T08:12:08;99738.41;;;59.69
76476;BMP280;65308;50.078;14.854;2023-07-09T08:14:37;99735.50;;;60.07
76476;BMP280;65308;50.078;14.854;2023-07-09T08:17:05;99731.72;;;60.46
76476;BMP280;65308;50.078;14.854;2023-07-09T08:19:32;99724.38;;;61.06
76476;BMP280;65308;50.078;14.854;2023-07-09T08:21:59;99726.91;;;61.67
76476;BMP280;65308;50.078;14.854;2023-07-09T08:24:25;99725.72;;;61.30
76476;BMP280;65308;50.078;14.854;2023-07-09T08:26:52;99718.34;;;61.54
76476;BMP280;65308;50.078;14.854;2023-07-09T08:29:20;99719.06;;;62.08
76476;BMP280;65308;50.078;14.854;2023-07-09T08:31:47;99718.16;;;62.73
76476;BMP280;65308;50.078;14.854;2023-07-09T08:34:17;99716.22;;;63.10
76476;BMP280;65308;50.078;14.854;2023-07-09T08:36:45;99714.19;;;63.66
76476;BMP280;65308;50.078;14.854;2023-07-09T08:39:14;99718.81;;;64.10
76476;BMP280;65308;50.078;14.854;2023-07-09T08:41:45;99710.38;;;63.78
76476;BMP280;65308;50.078;14.854;2023-07-09T08:44:30;99708.22;;;62.70
76476;BMP280;65308;50.078;14.854;2023-07-09T08:47:02;99710.09;;;61.59
76476;BMP280;65308;50.078;14.854;2023-07-09T08:49:40;99713.91;;;61.00
76476;BMP280;65308;50.078;14.854;2023-07-09T08:52:14;99710.06;;;60.22
76476;BMP280;65308;50.078;14.854;2023-07-09T08:55:05;99716.47;;;60.35
76476;BMP280;65308;50.078;14.854;2023-07-09T08:57:41;99717.59;;;60.53
76476;BMP280;65308;50.078;14.854;2023-07-09T09:00:16;99711.00;;;60.77
76476;BMP280;65308;50.078;14.854;2023-07-09T09:02:49;99703.91;;;61.21
76476;BMP280;65308;50.078;14.854;2023-07-09T09:05:19;99703.53;;;61.27
76476;BMP280;65308;50.078;14.854;2023-07-09T09:08:00;99698.34;;;61.50
76476;BMP280;65308;50.078;14.854;2023-07-09T09:10:33;99697.28;;;61.77
76476;BMP280;65308;50.078;14.854;2023-07-09T09:13:08;99691.56;;;61.43
76476;BMP280;65308;50.078;14.854;2023-07-09T09:15:40;99693.25;;;59.88
76476;BMP280;65308;50.078;14.854;2023-07-09T09:18:18;99696.78;;;57.73
76476;BMP280;65308;50.078;14.854;2023-07-09T09:20:55;99701.19;;;56.92
76476;BMP280;65308;50.078;14.854;2023-07-09T09:23:28;99697.19;;;56.85
76476;BMP280;65308;50.078;14.854;2023-07-09T09:25:58;99689.50;;;56.96
76476;BMP280;65308;50.078;14.854;2023-07-09T09:28:27;99687.72;;;57.20
76476;BMP280;65308;50.078;14.854;2023-07-09T09:30:56;99687.53;;;56.59
76476;BMP280;65308;50.078;14.854;2023-07-09T09:33:23;99691.97;;;56.40
76476;BMP280;65308;50.078;14.854;2023-07-09T09:36:01;99690.81;;;55.97
76476;BMP280;65308;50.078;14.854;2023-07-09T09:38:35;99677.66;;;54.88
76476;BMP280;65308;50.078;14.854;2023-07-09T09:41:02;99683.25;;;54.05
76476;BMP280;65308;50.078;14.854;2023-07-09T09:43:31;99681.59;;;53.13
76476;BMP280;65308;50.078;14.854;2023-07-09T09:46:05;99677.09;;;52.03
76476;BMP280;65308;50.078;14.854;2023-07-09T09:48:34;99674.00;;;50.08
76476;BMP280;65308;50.078;14.854;2023-07-09T09:51:04;99680.44;;;48.31
76476;BMP280;65308;50.078;14.854;2023-07-09T09:53:38;99677.63;;;48.31
76476;BMP280;65308;50.078;14.854;2023-07-09T09:56:13;99679.00;;;48.40
76476;BMP280;65308;50.078;14.854;2023-07-09T09:58:43;99681.94;;;48.18
76476;BMP280;65308;50.078;14.854;2023-07-09T10:01:17;99676.34;;;46.93
76476;BMP280;65308;50.078;14.854;2023-07-09T10:03:49;99674.69;;;46.31
76476;BMP280;65308;50.078;14.854;2023-07-09T10:06:28;99670.19;;;44.46
76476;BMP280;65308;50.078;14.854;2023-07-09T10:09:04;99668.28;;;44.61
76476;BMP280;65308;50.078;14.854;2023-07-09T10:11:44;99660.84;;;44.86
76476;BMP280;65308;50.078;14.854;2023-07-09T10:14:29;99668.13;;;45.09
76476;BMP280;65308;50.078;14.854;2023-07-09T10:17:04;99664.59;;;45.11
76476;BMP280;65308;50.078;14.854;2023-07-09T10:19:42;99670.91;;;45.05
76476;BMP280;65308;50.078;14.854;2023-07-09T10:22:20;99667.47;;;44.54
76476;BMP280;65308;50.078;14.854;2023-07-09T10:24:56;99670.63;;;43.00
76476;BMP280;65308;50.078;14.854;2023-07-09T10:27:32;99669.50;;;42.48
76476;BMP280;65308;50.078;14.854;2023-07-09T10:30:19;99663.31;;;41.65
76476;BMP280;65308;50.078;14.854;2023-07-09T10:33:02;99658.06;;;41.28
76476;BMP280;65308;50.078;14.854;2023-07-09T10:35:37;99660.31;;;41.08
76476;BMP280;65308;50.078;14.854;2023-07-09T10:38:18;99656.28;;;40.89
76476;BMP280;65308;50.078;14.854;2023-07-09T10:40:50;99653.00;;;40.73
76476;BMP280;65308;50.078;14.854;2023-07-09T10:43:21;99654.38;;;40.50
76476;BMP280;65308;50.078;14.854;2023-07-09T10:45:54;99649.38;;;40.24
76476;BMP280;65308;50.078;14.854;2023-07-09T10:48:33;99652.50;;;39.91
76476;BMP280;65308;50.078;14.854;2023-07-09T10:51:00;99643.53;;;39.75
76476;BMP280;65308;50.078;14.854;2023-07-09T10:53:32;99653.00;;;39.06
76476;BMP280;65308;50.078;14.854;2023-07-09T10:56:04;99646.94;;;37.74
76476;BMP280;65308;50.078;14.854;2023-07-09T10:58:46;99643.97;;;37.70
76476;BMP280;65308;50.078;14.854;2023-07-09T11:01:29;99643.25;;;37.69
76476;BMP280;65308;50.078;14.854;2023-07-09T11:04:04;99638.03;;;37.30
76476;BMP280;65308;50.078;14.854;2023-07-09T11:06:34;99642.44;;;37.35
76476;BMP280;65308;50.078;14.854;2023-07-09T11:09:06;99641.06;;;37.20
76476;BMP280;65308;50.078;14.854;2023-07-09T11:11:41;99637.19;;;37.12
76476;BMP280;65308;50.078;14.854;2023-07-09T11:14:14;99641.03;;;36.46
76476;BMP280;65308;50.078;14.854;2023-07-09T11:16:51;99649.75;;;36.24
76476;BMP280;65308;50.078;14.854;2023-07-09T11:19:40;99634.72;;;36.02
76476;BMP280;65308;50.078;14.854;2023-07-09T11:22:15;99637.38;;;36.14
76476;BMP280;65308;50.078;14.854;2023-07-09T11:24:49;99635.09;;;36.24
76476;BMP280;65308;50.078;14.854;2023-07-09T11:27:21;99639.53;;;36.15
76476;BMP280;65308;50.078;14.854;2023-07-09T11:30:03;99634.97;;;36.22
76476;BMP280;65308;50.078;14.854;2023-07-09T11:32:44;99629.50;;;36.24
76476;BMP280;65308;50.078;14.854;2023-07-09T11:35:21;99628.81;;;35.96
76476;BMP280;65308;50.078;14.854;2023-07-09T11:38:06;99621.16;;;35.97
76476;BMP280;65308;50.078;14.854;2023-07-09T11:40:45;99626.94;;;36.01
76476;BMP280;65308;50.078;14.854;2023-07-09T11:43:27;99628.81;;;35.96
76476;BMP280;65308;50.078;14.854;2023-07-09T11:45:55;99631.81;;;36.00
76476;BMP280;65308;50.078;14.854;2023-07-09T11:48:25;99619.41;;;36.03
76476;BMP280;65308;50.078;14.854;2023-07-09T11:51:08;99622.28;;;36.05
76476;BMP280;65308;50.078;14.854;2023-07-09T11:53:43;99622.44;;;36.07
76476;BMP280;65308;50.078;14.854;2023-07-09T11:56:11;99621.97;;;36.13
76476;BMP280;65308;50.078;14.854;2023-07-09T11:58:48;99620.97;;;36.06
76476;BMP280;65308;50.078;14.854;2023-07-09T12:01:17;99614.88;;;36.10
76476;BMP280;65308;50.078;14.854;2023-07-09T12:03:45;99604.34;;;36.08
76476;BMP280;65308;50.078;14.854;2023-07-09T12:06:17;99603.97;;;36.00
76476;BMP280;65308;50.078;14.854;2023-07-09T12:08:45;99609.72;;;36.04
76476;BMP280;65308;50.078;14.854;2023-07-09T12:11:20;99598.06;;;35.94
76476;BMP280;65308;50.078;14.854;2023-07-09T12:13:47;99601.03;;;35.84
76476;BMP280;65308;50.078;14.854;2023-07-09T12:16:25;99600.13;;;35.80
76476;BMP280;65308;50.078;14.854;2023-07-09T12:18:52;99603.19;;;35.58
76476;BMP280;65308;50.078;14.854;2023-07-09T12:21:20;99596.94;;;35.58
76476;BMP280;65308;50.078;14.854;2023-07-09T12:23:48;99589.88;;;35.57
76476;BMP280;65308;50.078;14.854;2023-07-09T12:26:18;99594.34;;;35.62
76476;BMP280;65308;50.078;14.854;2023-07-09T12:28:50;99600.94;;;35.69
76476;BMP280;65308;50.078;14.854;2023-07-09T12:31:17;99587.00;;;35.69
76476;BMP280;65308;50.078;14.854;2023-07-09T12:33:48;99585.91;;;35.74
76476;BMP280;65308;50.078;14.854;2023-07-09T12:36:16;99578.47;;;35.78
76476;BMP280;65308;50.078;14.854;2023-07-09T12:38:45;99584.44;;;35.73
76476;BMP280;65308;50.078;14.854;2023-07-09T12:41:18;99576.31;;;35.77
76476;BMP280;65308;50.078;14.854;2023-07-09T12:43:45;99566.78;;;35.68
76476;BMP280;65308;50.078;14.854;2023-07-09T12:46:12;99574.81;;;35.35
76476;BMP280;65308;50.078;14.854;2023-07-09T12:48:39;99561.31;;;35.29
76476;BMP280;65308;50.078;14.854;2023-07-09T12:51:07;99559.69;;;34.73
76476;BMP280;65308;50.078;14.854;2023-07-09T12:53:36;99555.38;;;34.21
76476;BMP280;65308;50.078;14.854;2023-07-09T12:56:11;99552.94;;;34.27
76476;BMP280;65308;50.078;14.854;2023-07-09T12:58:39;99550.91;;;34.53
76476;BMP280;65308;50.078;14.854;2023-07-09T13:01:07;99549.63;;;34.43
76476;BMP280;65308;50.078;14.854;2023-07-09T13:03:34;99545.88;;;34.50
76476;BMP280;65308;50.078;14.854;2023-07-09T13:06:03;99544.75;;;34.55
76476;BMP280;65308;50.078;14.854;2023-07-09T13:08:32;99542.09;;;34.57
76476;BMP280;65308;50.078;14.854;2023-07-09T13:11:00;99541.63;;;34.49
76476;BMP280;65308;50.078;14.854;2023-07-09T13:13:29;99533.81;;;34.71
76476;BMP280;65308;50.078;14.854;2023-07-09T13:16:00;99540.53;;;34.79
76476;BMP280;65308;50.078;14.854;2023-07-09T13:18:27;99537.75;;;34.79
76476;BMP280;65308;50.078;14.854;2023-07-09T13:20:55;99534.16;;;34.77
76476;BMP280;65308;50.078;14.854;2023-07-09T13:23:24;99537.19;;;34.94
76476;BMP280;65308;50.078;14.854;2023-07-09T13:25:51;99544.44;;;34.74
76476;BMP280;65308;50.078;14.854;2023-07-09T13:28:22;99542.63;;;34.42
76476;BMP280;65308;50.078;14.854;2023-07-09T13:30:55;99535.03;;;34.42
76476;BMP280;65308;50.078;14.854;2023-07-09T13:33:22;99534.19;;;34.40
76476;BMP280;65308;50.078;14.854;2023-07-09T13:35:49;99525.69;;;34.49
76476;BMP280;65308;50.078;14.854;2023-07-09T13:38:20;99525.84;;;34.65
76476;BMP280;65308;50.078;14.854;2023-07-09T13:40:48;99528.19;;;34.20
76476;BMP280;65308;50.078;14.854;2023-07-09T13:43:32;99526.47;;;34.26
76476;BMP280;65308;50.078;14.854;2023-07-09T13:46:02;99522.50;;;34.55
76476;BMP280;65308;50.078;14.854;2023-07-09T13:48:31;99526.38;;;34.61
76476;BMP280;65308;50.078;14.854;2023-07-09T13:50:59;99522.91;;;34.75
76476;BMP280;65308;50.078;14.854;2023-07-09T13:53:30;99519.97;;;34.84
76476;BMP280;65308;50.078;14.854;2023-07-09T13:55:57;99522.06;;;34.98
76476;BMP280;65308;50.078;14.854;2023-07-09T13:58:25;99522.75;;;34.84
76476;BMP280;65308;50.078;14.854;2023-07-09T14:00:55;99519.28;;;34.72
76476;BMP280;65308;50.078;14.854;2023-07-09T14:03:30;99521.75;;;34.66
76476;BMP280;65308;50.078;14.854;2023-07-09T14:05:57;99509.81;;;34.26
76476;BMP280;65308;50.078;14.854;2023-07-09T14:08:24;99512.50;;;34.13
76476;BMP280;65308;50.078;14.854;2023-07-09T14:10:50;99506.41;;;34.40
76476;BMP280;65308;50.078;14.854;2023-07-09T14:13:20;99508.50;;;34.53